Fremont, Utah
Current Conditions -  °F | °C
As of 7:53 PM on Saturday 22 Nov 2014 (Local Time) from KBCE Reporting Station
Overcast Overcast  
Wind Chill: 33°   Ceiling: 6000
Heat Index: 40°   Visibility: 10mi
Dew Point: 19°   Wind: 13mph
Humidity: 43%   Direction: 270°W
Pressure: 29.91"   Gusts: 23mph
Location:  38.4257°N, 111.707°W
Report Text: KBCE 230253Z AUTO 27011G20KT 10SM OVC060 04/M07 A2991 RMK AO2 PK WND 23027/0158 SLP101 T00441072 55004
Loading
Personal Weather Stations






























Interactive Weather Map New forecast layout! Learn more

10-Day Weather Forecast

Advertisements
Track Severe Weather on mobile